createdAt,value
2017-09-24T00:00:55.560Z,73.18
2017-09-24T00:06:02.086Z,72.79
2017-09-24T00:11:07.745Z,72.62
2017-09-24T00:16:12.224Z,72.41
2017-09-24T00:21:18.829Z,72.61
2017-09-24T00:26:25.350Z,71.68
2017-09-24T00:31:30.756Z,71.06
2017-09-24T00:36:37.392Z,71.16
2017-09-24T00:41:42.873Z,71.51
2017-09-24T00:46:49.996Z,71.42
2017-09-24T00:51:56.260Z,71.69
2017-09-24T00:57:02.809Z,71.90
2017-09-24T01:02:05.654Z,71.41
2017-09-24T01:07:11.967Z,70.91
2017-09-24T01:12:17.609Z,70.84
2017-09-24T01:17:22.988Z,71.02
2017-09-24T01:22:28.472Z,71.83
2017-09-24T01:27:31.342Z,71.63
2017-09-24T01:32:33.737Z,71.76
2017-09-24T01:37:36.416Z,71.66
2017-09-24T01:42:40.115Z,71.84
2017-09-24T01:47:42.736Z,72.10
2017-09-24T01:52:48.997Z,72.00
2017-09-24T01:57:54.585Z,71.85
2017-09-24T02:02:59.170Z,71.43
2017-09-24T02:08:05.068Z,71.33
2017-09-24T02:13:11.080Z,71.54
2017-09-24T02:18:17.544Z,71.11
2017-09-24T02:23:20.364Z,71.26
2017-09-24T02:28:25.432Z,71.35
2017-09-24T02:33:30.597Z,71.18
2017-09-24T02:38:38.608Z,70.60
2017-09-24T02:43:42.034Z,70.43
2017-09-24T02:48:51.651Z,70.42
2017-09-24T02:53:55.367Z,70.46
2017-09-24T02:58:57.999Z,70.40
2017-09-24T03:04:00.551Z,70.76
2017-09-24T03:09:07.551Z,70.30
2017-09-24T03:14:11.888Z,70.28
2017-09-24T03:19:17.548Z,70.24
2017-09-24T03:24:21.197Z,70.25
2017-09-24T03:29:26.481Z,70.11
2017-09-24T03:34:31.979Z,70.10
2017-09-24T03:39:38.687Z,70.98
2017-09-24T03:44:44.621Z,71.68
2017-09-24T03:49:48.341Z,72.08
2017-09-24T03:54:51.802Z,72.77
2017-09-24T03:59:55.118Z,72.80
2017-09-24T04:04:57.579Z,73.37
2017-09-24T04:10:03.755Z,73.71
2017-09-24T04:15:21.811Z,73.48
2017-09-24T04:20:25.651Z,73.29
2017-09-24T04:25:28.280Z,73.17
2017-09-24T04:30:30.953Z,73.16
2017-09-24T04:35:33.611Z,72.48
2017-09-24T04:40:36.083Z,72.33
2017-09-24T04:45:39.235Z,72.05
2017-09-24T04:50:41.733Z,71.85
2017-09-24T04:55:47.784Z,71.93
2017-09-24T05:00:50.880Z,71.39
2017-09-24T05:05:53.557Z,70.94
2017-09-24T05:10:56.047Z,70.70
2017-09-24T05:15:59.021Z,70.84
2017-09-24T05:21:01.691Z,71.06
2017-09-24T05:26:04.040Z,72.12
2017-09-24T05:31:08.586Z,72.06
2017-09-24T05:36:11.089Z,72.60
2017-09-24T05:41:16.356Z,72.16
2017-09-24T05:46:19.311Z,72.09
2017-09-24T05:51:22.141Z,72.58
2017-09-24T05:56:25.034Z,71.26
2017-09-24T06:01:27.168Z,71.02
2017-09-24T06:06:32.571Z,70.81
2017-09-24T06:11:36.543Z,70.29
2017-09-24T06:16:42.700Z,69.90
2017-09-24T06:21:46.173Z,69.46
2017-09-24T06:26:49.688Z,70.10
2017-09-24T06:31:55.395Z,69.31
2017-09-24T06:36:57.771Z,68.56
2017-09-24T06:42:00.524Z,67.72
2017-09-24T06:47:04.843Z,66.95
2017-09-24T06:52:08.030Z,66.64
2017-09-24T06:57:12.743Z,66.54
2017-09-24T07:02:15.036Z,67.65
2017-09-24T07:07:17.648Z,68.29
2017-09-24T07:12:20.373Z,67.17
2017-09-24T07:17:23.696Z,67.07
2017-09-24T07:22:29.029Z,67.13
2017-09-24T07:27:31.852Z,67.22
2017-09-24T07:32:37.489Z,66.79
2017-09-24T07:37:41.072Z,66.70
2017-09-24T07:42:44.214Z,66.48
2017-09-24T07:47:46.374Z,66.10
2017-09-24T07:52:51.468Z,65.99
2017-09-24T07:57:53.450Z,67.26
2017-09-24T08:02:57.043Z,66.63
2017-09-24T08:07:59.111Z,66.08
2017-09-24T08:13:01.807Z,65.95
2017-09-24T08:18:03.760Z,65.27
2017-09-24T08:23:05.702Z,63.57
2017-09-24T08:28:07.621Z,62.19
2017-09-24T08:33:10.289Z,62.93
2017-09-24T08:38:12.273Z,62.82
2017-09-24T08:43:14.230Z,61.74
2017-09-24T08:48:16.229Z,61.31
2017-09-24T08:53:18.892Z,60.76
2017-09-24T08:58:23.020Z,59.61
2017-09-24T09:03:25.023Z,59.42
2017-09-24T09:08:27.693Z,60.21
2017-09-24T09:13:29.665Z,60.33
2017-09-24T09:18:31.597Z,59.77
2017-09-24T09:23:34.242Z,60.04
2017-09-24T09:28:36.146Z,59.53
2017-09-24T09:33:38.182Z,59.37
2017-09-24T09:38:40.124Z,59.29
2017-09-24T09:43:45.974Z,59.46
2017-09-24T09:48:47.873Z,60.08
2017-09-24T09:53:51.433Z,60.12
2017-09-24T09:58:53.420Z,59.18
2017-09-24T10:03:56.087Z,61.00
2017-09-24T10:09:16.172Z,63.14
2017-09-24T10:14:18.158Z,65.71
2017-09-24T10:19:20.070Z,64.92
2017-09-24T10:24:22.074Z,64.72
2017-09-24T10:29:28.824Z,65.75
2017-09-24T10:34:30.766Z,66.00
2017-09-24T10:39:32.744Z,66.12
2017-09-24T10:44:34.705Z,66.00
2017-09-24T10:49:36.647Z,65.33
2017-09-24T10:54:38.662Z,66.13
2017-09-24T10:59:41.150Z,67.64
2017-09-24T11:04:43.087Z,69.00
2017-09-24T11:09:45.712Z,69.75
2017-09-24T11:14:47.701Z,70.35
2017-09-24T11:19:50.396Z,70.30
2017-09-24T11:24:52.358Z,70.32
2017-09-24T11:29:54.311Z,71.67
2017-09-24T11:34:56.251Z,70.99
2017-09-24T11:39:58.187Z,71.49
2017-09-24T11:45:00.162Z,72.07
2017-09-24T11:50:02.168Z,71.23
2017-09-24T11:55:04.117Z,70.51
2017-09-24T12:00:06.091Z,70.63
2017-09-24T12:05:08.039Z,71.56
2017-09-24T12:10:09.973Z,71.55
2017-09-24T12:15:11.955Z,73.02
2017-09-24T12:20:13.875Z,74.20
2017-09-24T12:25:15.790Z,74.73
2017-09-24T12:30:17.692Z,74.95
2017-09-24T12:35:19.606Z,75.98
2017-09-24T12:40:21.578Z,75.38
2017-09-24T12:45:23.529Z,75.98
2017-09-24T12:50:25.446Z,75.25
2017-09-24T12:55:27.365Z,74.87
2017-09-24T13:00:29.323Z,74.58
2017-09-24T13:05:31.299Z,74.75
2017-09-24T13:10:33.272Z,74.94
2017-09-24T13:15:35.207Z,74.71
2017-09-24T13:20:37.140Z,75.71
2017-09-24T13:25:39.059Z,75.60
2017-09-24T13:30:40.999Z,76.24
2017-09-24T13:35:43.626Z,76.14
2017-09-24T13:40:45.741Z,76.15
2017-09-24T13:45:47.648Z,76.23
2017-09-24T13:50:50.317Z,75.94
2017-09-24T13:55:52.335Z,76.07
2017-09-24T14:00:54.305Z,75.70
2017-09-24T14:05:57.014Z,75.79
2017-09-24T14:10:58.986Z,75.72
2017-09-24T14:16:00.963Z,76.46
2017-09-24T14:21:02.955Z,76.17
2017-09-24T14:26:04.951Z,76.82
2017-09-24T14:31:07.047Z,76.89
2017-09-24T14:36:09.000Z,76.92
2017-09-24T14:41:10.949Z,76.42
2017-09-24T14:46:12.880Z,76.79
2017-09-24T14:51:14.934Z,76.82
2017-09-24T14:56:16.858Z,77.19
2017-09-24T15:01:19.515Z,76.90
2017-09-24T15:06:21.483Z,76.92
2017-09-24T15:11:23.411Z,76.82
2017-09-24T15:16:26.167Z,76.76
2017-09-24T15:21:28.359Z,76.80
2017-09-24T15:26:35.326Z,77.09
2017-09-24T15:31:37.845Z,77.10
2017-09-24T15:36:41.021Z,77.09
2017-09-24T15:41:44.503Z,77.03
2017-09-24T15:46:46.465Z,77.36
2017-09-24T15:51:49.126Z,77.35
2017-09-24T15:56:51.861Z,76.96
2017-09-24T16:01:53.815Z,77.19
2017-09-24T16:06:55.757Z,77.54
2017-09-24T16:11:57.815Z,77.76
2017-09-24T16:16:59.826Z,78.43
2017-09-24T16:22:01.824Z,78.24
2017-09-24T16:27:04.586Z,78.28
2017-09-24T16:32:07.297Z,78.54
2017-09-24T16:37:09.244Z,78.03
2017-09-24T16:42:11.244Z,77.65
2017-09-24T16:47:13.368Z,78.19
2017-09-24T16:52:18.513Z,78.21
2017-09-24T16:57:20.718Z,78.61
2017-09-24T17:02:22.719Z,78.34
2017-09-24T17:07:24.683Z,78.71
2017-09-24T17:12:27.366Z,78.45
2017-09-24T17:17:29.343Z,78.00
2017-09-24T17:22:31.297Z,78.02
2017-09-24T17:27:35.805Z,78.11
2017-09-24T17:32:37.778Z,77.96
2017-09-24T17:37:41.091Z,78.14
2017-09-24T17:42:43.079Z,77.91
2017-09-24T17:47:45.058Z,77.71
2017-09-24T17:52:46.983Z,78.04
2017-09-24T17:57:48.914Z,78.15
2017-09-24T18:02:50.923Z,78.14
2017-09-24T18:07:52.860Z,78.05
2017-09-24T18:12:55.592Z,78.15
2017-09-24T18:17:57.874Z,77.82
2017-09-24T18:23:00.434Z,78.29
2017-09-24T18:28:02.407Z,77.88
2017-09-24T18:33:05.122Z,77.93
2017-09-24T18:38:07.191Z,77.98
2017-09-24T18:43:09.847Z,78.09
2017-09-24T18:48:12.735Z,77.94
2017-09-24T18:53:14.714Z,77.82
2017-09-24T18:58:16.669Z,77.71
2017-09-24T19:03:19.462Z,78.03
2017-09-24T19:08:21.396Z,77.92
2017-09-24T19:13:23.672Z,78.30
2017-09-24T19:18:26.677Z,78.26
2017-09-24T19:23:28.684Z,78.17
2017-09-24T19:28:30.710Z,78.25
2017-09-24T19:33:32.656Z,78.34
2017-09-24T19:38:34.597Z,78.37
2017-09-24T19:43:36.555Z,78.31
2017-09-24T19:48:38.487Z,78.28
2017-09-24T19:53:40.560Z,78.86
2017-09-24T19:58:42.549Z,78.48
2017-09-24T20:03:44.472Z,79.14
2017-09-24T20:08:46.381Z,78.82
2017-09-24T20:13:48.300Z,78.48
2017-09-24T20:18:51.086Z,79.18
2017-09-24T20:24:00.079Z,78.77
2017-09-24T20:29:02.755Z,78.76
2017-09-24T20:34:04.723Z,78.71
2017-09-24T20:39:06.656Z,79.07
2017-09-24T20:44:08.586Z,78.78
2017-09-24T20:49:10.552Z,78.72
2017-09-24T20:54:12.591Z,78.89
2017-09-24T20:59:14.543Z,79.04
2017-09-24T21:04:16.496Z,78.78
2017-09-24T21:09:19.416Z,79.42
2017-09-24T21:14:21.402Z,79.27
2017-09-24T21:19:24.409Z,79.55
2017-09-24T21:24:26.380Z,79.49
2017-09-24T21:29:28.396Z,79.44
2017-09-24T21:34:30.424Z,79.34
2017-09-24T21:39:32.394Z,79.76
2017-09-24T21:44:34.418Z,79.30
2017-09-24T21:49:37.159Z,79.31
2017-09-24T21:54:40.801Z,79.02
2017-09-24T21:59:42.741Z,78.63
2017-09-24T22:04:44.696Z,78.31
2017-09-24T22:09:46.682Z,78.29
2017-09-24T22:14:49.447Z,78.65
2017-09-24T22:19:51.449Z,78.35
2017-09-24T22:24:53.433Z,78.38
2017-09-24T22:29:55.355Z,77.93
2017-09-24T22:34:57.536Z,77.77
2017-09-24T22:40:00.122Z,77.51
2017-09-24T22:45:03.426Z,77.27
2017-09-24T22:50:05.508Z,77.26
2017-09-24T22:55:08.125Z,77.30
2017-09-24T23:00:10.827Z,77.64
2017-09-24T23:05:13.374Z,77.54
2017-09-24T23:10:15.974Z,77.33
2017-09-24T23:15:18.624Z,77.29
2017-09-24T23:20:20.571Z,77.93
2017-09-24T23:25:23.203Z,77.94
2017-09-24T23:30:25.769Z,77.92
2017-09-24T23:35:28.433Z,77.52
2017-09-24T23:40:30.675Z,77.77
2017-09-24T23:45:34.236Z,78.03
2017-09-24T23:50:37.666Z,77.99
2017-09-24T23:55:40.217Z,78.41
